Historical Weather Data
Okotoks
Hwy 2A and Milligan Dr

Date
ET inches
Rain inches
Temperature °C
Humidity
Avg
Wind kmh
Avg
Solar Wm2
Avg
High
Avg
Low
11/01/2020 0.03 0.00 19.0 4.2 -4.3 60 0.0 85
11/02/2020 0.04 0.00 23.9 9.6 -0.6 41 0.0 81
11/03/2020 0.04 0.00 20.8 8.6 -0.1 38 0.0 66
11/04/2020 0.03 0.00 17.3 9.5 -1.4 52 0.0 83
11/05/2020 0.02 0.00 13.0 7.5 -0.3 72 0.0 46
11/06/2020 0.01 0.00 3.3 0.3 -3.2 87 0.0 35
11/07/2020 0.01 0.00 -0.3 -2.9 -9.1 89 0.0 14
11/08/2020 0.01 0.00 -7.7 -9.6 -14.7 74 0.0 36
11/09/2020 0.02 0.00 1.1 -9.1 -19.6 76 0.0 91
11/10/2020 0.01 0.00 0.2 -2.5 -7.0 91 0.0 42
11/11/2020 0.01 0.00 -4.1 -11.5 -18.6 80 0.0 76
11/12/2020 0.02 0.00 3.5 -8.8 -18.6 68 0.0 66
11/13/2020 0.01 0.00 3.2 -3.3 -9.7 64 0.0 44
11/14/2020 0.02 0.00 3.1 -4.9 -14.2 70 0.0 73
11/15/2020 0.02 0.00 5.1 -4.1 -14.4 58 0.0 78
11/16/2020 0.02 0.00 5.1 -3.2 -10.9 62 0.0 57
11/17/2020 0.01 0.00 9.0 1.9 -3.3 82 0.0 52
11/18/2020 0.01 0.00 9.4 -1.0 -8.6 74 0.0 65
11/19/2020 0.00 0.00 -8.4 -10.4 -11.8 92 0.0 39
11/20/2020 0.02 0.00 2.5 -5.8 -16.3 73 0.0 47
11/21/2020 0.02 0.00 6.3 -3.1 -9.5 67 0.0 68
11/22/2020 0.01 0.00 8.0 -3.6 -9.8 58 0.0 21
11/23/2020 0.02 0.00 5.0 -4.1 -11.6 69 0.0 60
11/24/2020 0.01 0.00 7.6 -3.1 -11.8 70 0.0 27
11/25/2020 0.02 0.00 4.5 -2.5 -10.2 71 0.0 57
11/26/2020 0.01 0.00 4.1 -2.5 -9.5 72 0.0 62
11/27/2020 0.02 0.00 12.2 3.8 -4.0 48 0.0 57
11/28/2020 0.01 0.00 9.2 -1.7 -13.6 62 0.0 48
11/29/2020 0.01 0.00 7.3 -3.5 -14.4 57 0.0 17
11/30/2020 0.03 0.00 7.3 4.1 -1.7 31 0.0 19